Time;durP1;ratioP1;P1;durP2;ratioP2;P2;SDS_P1;SDS_P2;PMS_P1;PMS_P2;Temp;Humidity;BMP_temperature;BMP_pressure;BME280_temperature;BME280_humidity;BME280_pressure;Samples;Min_cycle;Max_cycle;Signal;HPM_P1;HPM_P2
2022/10/06 00:01:20;;;;;;;11.10;7.50;;;;;;;12.61;66.75;100815.41;111131;1250;22074;-85
2022/10/06 00:03:49;;;;;;;8.40;7.20;;;;;;;12.61;66.83;100813.70;110979;1257;21978;-87
2022/10/06 00:06:18;;;;;;;9.20;7.60;;;;;;;12.62;66.89;100813.99;110265;1257;23059;-86
2022/10/06 00:09:04;;;;;;;10.80;6.90;;;;;;;12.64;66.90;100813.91;110839;1257;23635;-88
2022/10/06 00:11:55;;;;;;;7.70;6.60;;;;;;;12.61;66.91;100810.91;111798;1251;22058;-88
2022/10/06 00:14:40;;;;;;;10.00;7.10;;;;;;;12.59;66.81;100806.27;110917;1254;22247;-88
2022/10/06 00:17:13;;;;;;;8.70;6.80;;;;;;;12.59;66.88;100806.77;111387;1254;22200;-88
2022/10/06 00:19:43;;;;;;;9.30;6.90;;;;;;;12.63;66.93;100808.20;111180;1254;21972;-87
2022/10/06 00:22:14;;;;;;;13.90;7.70;;;;;;;12.68;66.97;100813.09;110958;1256;23791;-88
2022/10/06 00:24:43;;;;;;;9.80;5.90;;;;;;;12.68;66.80;100812.70;110845;1256;21939;-87
2022/10/06 00:27:12;;;;;;;9.20;6.80;;;;;;;12.68;66.75;100814.27;110937;1256;24035;-87
2022/10/06 00:29:41;;;;;;;11.70;6.80;;;;;;;12.70;66.81;100812.97;110757;1256;22037;-86
2022/10/06 00:32:11;;;;;;;8.40;6.60;;;;;;;12.72;66.71;100814.66;110942;1256;22076;-86
2022/10/06 00:34:39;;;;;;;8.50;6.60;;;;;;;12.72;66.65;100813.60;110785;1253;21973;-83
2022/10/06 00:37:09;;;;;;;8.50;6.90;;;;;;;12.71;66.60;100809.11;110587;1254;21962;-84
2022/10/06 00:39:38;;;;;;;9.80;6.10;;;;;;;12.70;66.65;100810.20;110698;1254;21996;-84
2022/10/06 00:42:28;;;;;;;10.80;6.90;;;;;;;12.68;66.62;100810.44;110491;1254;22472;-85
2022/10/06 00:45:05;;;;;;;8.90;6.00;;;;;;;12.63;66.66;100811.52;110713;1253;21963;-85
2022/10/06 00:47:34;;;;;;;14.00;5.90;;;;;;;12.63;66.95;100812.05;110803;1253;22991;-83
2022/10/06 00:50:04;;;;;;;7.50;6.50;;;;;;;12.61;66.79;100808.97;110093;1259;21981;-85
2022/10/06 00:52:34;;;;;;;9.70;6.70;;;;;;;12.57;66.87;100806.52;109267;1267;21986;-86
2022/10/06 00:55:08;;;;;;;10.20;6.60;;;;;;;12.56;66.87;100806.38;109235;1267;22985;-85
2022/10/06 00:57:39;;;;;;;8.20;6.00;;;;;;;12.55;66.96;100809.73;109258;1267;22045;-85
2022/10/06 01:00:09;;;;;;;11.30;7.20;;;;;;;12.55;67.14;100807.12;109194;1266;21981;-85
2022/10/06 01:02:49;;;;;;;9.30;6.90;;;;;;;12.54;67.31;100808.54;109241;1267;22022;-86
2022/10/06 01:05:29;;;;;;;6.20;5.30;;;;;;;12.54;67.12;100809.41;109210;1267;21991;-84
2022/10/06 01:07:58;;;;;;;9.40;6.70;;;;;;;12.50;67.05;100805.73;109490;1261;21963;-86
2022/10/06 01:10:27;;;;;;;10.20;6.90;;;;;;;12.50;67.23;100805.88;110011;1256;21975;-85
2022/10/06 01:12:57;;;;;;;10.00;6.60;;;;;;;12.49;67.15;100809.25;110022;1259;23448;-86
2022/10/06 01:15:27;;;;;;;7.90;6.80;;;;;;;12.51;67.20;100810.40;110167;1257;21975;-86
2022/10/06 01:18:08;;;;;;;11.30;7.00;;;;;;;12.49;67.19;100814.49;109537;1264;21980;-84
2022/10/06 01:20:43;;;;;;;11.10;6.10;;;;;;;12.47;67.22;100810.02;109495;1265;22742;-84
2022/10/06 01:23:12;;;;;;;9.30;7.30;;;;;;;12.45;67.32;100815.00;109463;1263;23056;-83
2022/10/06 01:25:41;;;;;;;8.50;6.70;;;;;;;12.44;67.30;100815.89;109472;1265;22002;-84
2022/10/06 01:28:12;;;;;;;13.80;7.60;;;;;;;12.43;67.25;100816.99;109071;1267;22120;-83
2022/10/06 01:30:53;;;;;;;10.40;6.20;;;;;;;12.42;67.36;100813.90;109283;1263;22175;-86
2022/10/06 01:33:24;;;;;;;8.70;6.10;;;;;;;12.38;67.41;100814.05;109402;1264;21982;-86
2022/10/06 01:35:53;;;;;;;8.80;6.20;;;;;;;12.38;67.46;100820.14;109591;1259;21982;-83
2022/10/06 01:38:23;;;;;;;15.30;6.70;;;;;;;12.34;67.34;100815.93;110152;1259;22037;-83
2022/10/06 01:40:58;;;;;;;8.80;6.70;;;;;;;12.30;67.37;100816.10;110046;1258;22068;-84
2022/10/06 01:43:27;;;;;;;8.10;7.30;;;;;;;12.27;67.58;100814.80;109489;1267;23667;-83
2022/10/06 01:45:57;;;;;;;7.80;7.00;;;;;;;12.26;67.61;100814.29;109352;1261;23678;-83
2022/10/06 01:48:27;;;;;;;11.40;9.20;;;;;;;12.22;67.69;100815.34;109421;1267;21997;-83
2022/10/06 01:50:58;;;;;;;;;;;;;;;12.15;67.67;100815.08;109256;1267;24447;-83
2022/10/06 01:53:27;;;;;;;13.80;12.20;;;;;;;11.99;67.95;100816.53;109496;1267;21945;-82
2022/10/06 01:55:58;;;;;;;16.50;14.80;;;;;;;11.95;68.08;100817.35;109259;1267;21987;-83
2022/10/06 01:58:29;;;;;;;18.10;16.50;;;;;;;11.91;68.03;100822.72;109510;1267;21986;-84
2022/10/06 02:01:08;;;;;;;19.60;17.70;;;;;;;11.85;68.10;100826.94;109315;1264;21975;-83
2022/10/06 02:03:39;;;;;;;23.10;20.80;;;;;;;11.79;68.24;100827.84;109528;1264;21998;-83
2022/10/06 02:06:09;;;;;;;;;;;;;;;11.73;68.19;100829.27;109642;1259;23120;-82
2022/10/06 02:08:39;;;;;;;19.70;17.80;;;;;;;11.56;68.49;100830.73;110109;1259;21969;-83
2022/10/06 02:11:10;;;;;;;19.10;17.10;;;;;;;11.51;68.74;100829.69;110150;1259;21971;-83
2022/10/06 02:13:42;;;;;;;17.80;16.00;;;;;;;11.49;68.99;100827.64;110162;1259;21991;-83
2022/10/06 02:16:12;;;;;;;16.70;14.70;;;;;;;11.51;69.11;100828.11;110302;1259;22455;-84
2022/10/06 02:18:43;;;;;;;16.50;15.00;;;;;;;11.53;69.16;100834.66;110220;1254;21966;-83
2022/10/06 02:21:18;;;;;;;16.50;14.60;;;;;;;11.52;69.12;100836.08;110810;1254;23672;-84
2022/10/06 02:23:48;;;;;;;15.20;13.80;;;;;;;11.49;69.14;100835.50;110698;1253;22266;-84
2022/10/06 02:26:17;;;;;;;14.80;13.20;;;;;;;11.46;69.32;100836.11;110577;1254;23577;-83
2022/10/06 02:28:50;;;;;;;14.80;13.10;;;;;;;11.47;69.52;100838.35;110656;1254;21974;-86
2022/10/06 02:31:23;;;;;;;14.40;12.90;;;;;;;11.49;69.75;100842.98;109898;1261;22815;-85
2022/10/06 02:33:53;;;;;;;15.80;14.10;;;;;;;11.53;69.77;100844.44;109903;1261;21980;-84
2022/10/06 02:36:23;;;;;;;17.70;15.40;;;;;;;11.55;69.69;100842.98;109608;1260;21988;-86
2022/10/06 02:38:53;;;;;;;16.40;13.60;;;;;;;11.55;69.67;100845.05;109613;1260;21994;-85
2022/10/06 02:41:23;;;;;;;13.70;12.30;;;;;;;11.53;69.50;100851.23;109281;1267;22447;-84
2022/10/06 02:43:54;;;;;;;13.60;12.20;;;;;;;11.50;69.38;100852.55;109475;1266;21991;-85
2022/10/06 02:46:24;;;;;;;15.30;13.00;;;;;;;11.49;69.48;100851.55;109207;1267;23098;-86
2022/10/06 02:48:53;;;;;;;12.60;11.10;;;;;;;11.47;69.54;100857.36;109475;1259;23052;-84
2022/10/06 02:51:24;;;;;;;12.40;9.80;;;;;;;11.45;69.66;100859.32;109907;1259;21977;-84
2022/10/06 02:53:53;;;;;;;14.00;10.60;;;;;;;11.47;69.85;100864.67;110156;1258;23045;-86
2022/10/06 02:56:28;;;;;;;11.70;8.70;;;;;;;11.47;69.94;100868.69;109525;1267;21985;-87
2022/10/06 02:58:58;;;;;;;13.30;8.70;;;;;;;11.48;70.08;100868.48;109412;1262;21992;-85
2022/10/06 03:01:31;;;;;;;9.40;8.30;;;;;;;11.50;70.16;100866.86;109055;1268;21986;-83
2022/10/06 03:04:04;;;;;;;10.70;8.60;;;;;;;11.52;70.34;100869.91;109191;1268;22033;-84
2022/10/06 03:06:35;;;;;;;9.70;7.90;;;;;;;11.54;70.29;100872.10;109048;1270;23632;-84
2022/10/06 03:09:09;;;;;;;11.90;7.30;;;;;;;11.56;70.26;100874.82;109043;1270;22064;-85
2022/10/06 03:11:42;;;;;;;8.00;6.80;;;;;;;11.60;70.52;100878.20;109158;1270;21999;-84
2022/10/06 03:14:14;;;;;;;11.00;6.90;;;;;;;11.62;70.71;100878.46;109196;1264;23603;-84
2022/10/06 03:16:55;;;;;;;10.20;8.10;;;;;;;11.64;70.52;100880.33;109775;1260;21995;-83
2022/10/06 03:19:27;;;;;;;10.50;6.90;;;;;;;11.65;70.56;100878.70;110056;1253;22268;-85
2022/10/06 03:21:56;;;;;;;8.30;7.50;;;;;;;11.68;70.56;100878.60;109224;1260;1111748;-86
2022/10/06 03:24:36;;;;;;;10.00;6.60;;;;;;;11.70;70.64;100881.85;110250;1260;22289;-87
2022/10/06 03:27:05;;;;;;;10.20;6.10;;;;;;;11.75;70.83;100885.85;109544;1266;23049;-87
2022/10/06 03:29:34;;;;;;;10.10;6.00;;;;;;;11.81;70.91;100887.77;109593;1264;22176;-86
2022/10/06 03:32:04;;;;;;;8.70;5.80;;;;;;;11.86;70.85;100887.08;109686;1266;21983;-85
2022/10/06 03:34:34;;;;;;;8.10;6.10;;;;;;;11.90;70.93;100886.77;109777;1264;21987;-88
2022/10/06 03:37:04;;;;;;;9.70;5.60;;;;;;;11.96;70.93;100887.98;109412;1264;21990;-85
2022/10/06 03:39:34;;;;;;;9.40;6.00;;;;;;;12.00;71.02;100888.88;109768;1260;23707;-85
2022/10/06 03:42:03;;;;;;;8.30;6.20;;;;;;;12.05;71.11;100888.86;110159;1261;23047;-86
2022/10/06 03:44:33;;;;;;;8.30;6.50;;;;;;;12.10;71.15;100885.73;109979;1253;22006;-86
2022/10/06 03:47:03;;;;;;;10.90;6.50;;;;;;;12.16;71.05;100887.61;110656;1256;21971;-84
2022/10/06 03:49:33;;;;;;;6.90;6.10;;;;;;;12.22;71.03;100890.86;109691;1261;23066;-85
2022/10/06 03:52:02;;;;;;;9.50;6.30;;;;;;;12.28;71.16;100894.85;109612;1261;22204;-85
2022/10/06 03:54:35;;;;;;;7.40;6.60;;;;;;;12.35;71.14;100901.44;109139;1267;23597;-84
2022/10/06 03:57:03;;;;;;;8.90;5.70;;;;;;;12.42;71.06;100903.09;108955;1273;21985;-85
2022/10/06 03:59:33;;;;;;;7.50;6.40;;;;;;;12.49;71.06;100902.48;108454;1278;22047;-85
2022/10/06 04:02:04;;;;;;;11.60;6.20;;;;;;;12.56;70.95;100902.73;108603;1276;24943;-83
2022/10/06 04:04:37;;;;;;;12.40;5.70;;;;;;;12.62;71.08;100911.76;108469;1276;22155;-85
2022/10/06 04:07:10;;;;;;;10.60;6.00;;;;;;;12.67;70.78;100913.48;108597;1272;23084;-86
2022/10/06 04:09:40;;;;;;;9.20;6.30;;;;;;;12.72;70.62;100913.33;108985;1273;23584;-85
2022/10/06 04:12:10;;;;;;;6.30;5.50;;;;;;;12.77;70.55;100918.35;109178;1267;22311;-85
2022/10/06 04:14:40;;;;;;;12.20;5.90;;;;;;;12.81;70.45;100913.66;109266;1264;21960;-86
2022/10/06 04:17:09;;;;;;;7.10;5.90;;;;;;;12.84;70.40;100920.70;109754;1256;22160;-85
2022/10/06 04:19:40;;;;;;;8.10;5.40;;;;;;;12.89;70.31;100923.83;110624;1255;22269;-87
2022/10/06 04:22:09;;;;;;;9.10;6.20;;;;;;;12.94;70.22;100928.71;110730;1256;22517;-84
2022/10/06 04:24:39;;;;;;;12.30;6.00;;;;;;;13.00;70.11;100932.53;110581;1256;23032;-85
2022/10/06 04:30:14;;;;;;;9.00;5.50;;;;;;;13.05;69.83;100933.70;110581;1255;21976;-85
2022/10/06 04:32:44;;;;;;;6.20;5.10;;;;;;;13.08;69.73;100934.48;110536;1256;21971;-85
2022/10/06 04:35:14;;;;;;;8.60;6.10;;;;;;;13.10;69.58;100933.51;110886;1251;23648;-85
2022/10/06 04:37:43;;;;;;;6.80;5.80;;;;;;;13.13;69.58;100934.45;110910;1251;22985;-86
2022/10/06 04:40:12;;;;;;;7.10;6.40;;;;;;;13.15;69.44;100939.61;110969;1251;22024;-85
2022/10/06 04:42:41;;;;;;;9.60;6.10;;;;;;;13.17;69.35;100941.66;110869;1251;23601;-85
2022/10/06 04:45:14;;;;;;;8.90;5.70;;;;;;;13.19;69.41;100944.54;110703;1252;21969;-85
2022/10/06 04:47:47;;;;;;;8.80;7.30;;;;;;;13.23;69.38;100945.94;110833;1253;21979;-86
2022/10/06 04:50:17;;;;;;;9.00;6.40;;;;;;;13.28;69.51;100951.02;110918;1251;23671;-85
2022/10/06 04:53:04;;;;;;;9.90;6.30;;;;;;;13.34;69.43;100952.38;110898;1251;22001;-83
2022/10/06 04:55:33;;;;;;;12.40;7.10;;;;;;;13.39;69.19;100959.16;110794;1251;22007;-84
2022/10/06 04:58:03;;;;;;;6.80;5.30;;;;;;;13.44;69.06;100959.84;111131;1252;23597;-85
2022/10/06 05:00:32;;;;;;;15.90;9.20;;;;;;;13.48;69.06;100965.97;110655;1252;23668;-82
2022/10/06 05:03:01;;;;;;;14.10;6.00;;;;;;;13.51;68.99;100969.52;110546;1252;22264;-81
2022/10/06 05:05:30;;;;;;;7.40;5.10;;;;;;;13.57;68.92;100972.93;110700;1250;22135;-82
2022/10/06 05:07:59;;;;;;;6.70;4.90;;;;;;;13.62;68.89;100972.91;110686;1252;21955;-81
2022/10/06 05:10:29;;;;;;;6.00;4.70;;;;;;;13.69;68.94;100978.95;110767;1251;21971;-84
2022/10/06 05:12:58;;;;;;;8.40;4.90;;;;;;;13.76;68.94;100985.83;110802;1250;22979;-80
2022/10/06 05:15:28;;;;;;;8.60;4.50;;;;;;;13.83;68.89;100980.11;110651;1250;22402;-81
2022/10/06 05:17:56;;;;;;;10.70;5.30;;;;;;;13.92;68.79;100984.13;110611;1249;21925;-81
2022/10/06 05:20:27;;;;;;;6.20;4.80;;;;;;;13.98;68.49;100983.52;110012;1255;21966;-80
2022/10/06 05:22:56;;;;;;;7.30;4.80;;;;;;;14.05;68.37;100988.30;110251;1258;21973;-81
2022/10/06 05:25:28;;;;;;;9.40;4.50;;;;;;;14.12;68.28;100992.38;109943;1258;21969;-82
2022/10/06 05:28:03;;;;;;;7.40;4.40;;;;;;;14.17;68.16;100994.59;109928;1258;24556;-80
2022/10/06 05:30:56;;;;;;;7.30;4.20;;;;;;;14.23;68.00;100997.55;109941;1260;22126;-81
2022/10/06 05:33:31;;;;;;;8.20;4.40;;;;;;;14.30;67.83;101003.52;110068;1261;22802;-82
2022/10/06 05:36:17;;;;;;;8.10;4.40;;;;;;;14.40;67.86;101013.05;109982;1260;22747;-88
2022/10/06 05:38:56;;;;;;;6.80;4.60;;;;;;;14.45;67.65;101016.53;109859;1264;22738;-86
2022/10/06 05:41:41;;;;;;;8.00;4.60;;;;;;;14.55;67.49;101024.70;110275;1258;21997;-87
2022/10/06 05:44:13;;;;;;;6.60;5.00;;;;;;;14.62;67.34;101026.48;110213;1257;21989;-88
2022/10/06 05:46:50;;;;;;;7.20;5.30;;;;;;;14.69;67.27;101023.23;109662;1263;22006;-86
2022/10/06 05:49:22;;;;;;;8.40;4.70;;;;;;;14.75;67.06;101026.67;109471;1263;22019;-88
2022/10/06 05:51:58;;;;;;;5.00;4.30;;;;;;;14.81;66.97;101033.73;109510;1263;22001;-87
2022/10/06 05:54:35;;;;;;;6.70;5.00;;;;;;;14.86;66.85;101038.41;109562;1264;22020;-88
2022/10/06 05:57:58;;;;;;;;;;;;;;;;;;;;;
2022/10/06 06:01:54;;;;;;;7.20;5.00;;;;;;;14.87;66.58;101046.09;109456;1269;21993;-86
2022/10/06 06:04:46;;;;;;;6.30;4.80;;;;;;;14.92;66.56;101051.28;109466;1264;23043;-86
2022/10/06 06:08:24;;;;;;;8.10;5.00;;;;;;;14.95;66.21;101051.15;109856;1263;21975;-88
2022/10/06 06:11:28;;;;;;;;;;;;;;;;;;;;;
2022/10/06 06:18:46;;;;;;;;;;;;;;;;;;;;;
2022/10/06 06:23:08;;;;;;;6.20;5.00;;;;;;;15.12;66.32;101068.10;109846;1269;23699;-89
2022/10/06 06:26:41;;;;;;;6.80;4.70;;;;;;;15.25;66.39;101078.36;109033;1279;23669;-88
2022/10/06 06:30:31;;;;;;;8.30;4.90;;;;;;;15.44;66.23;101086.79;108856;1279;22018;-91
2022/10/06 06:34:07;;;;;;;9.50;5.30;;;;;;;15.53;65.89;101089.34;108670;1282;22019;-90
2022/10/06 06:41:26;;;;;;;6.60;5.50;;;;;;;15.62;65.36;101098.24;107737;1291;23017;-89
2022/10/06 06:44:11;;;;;;;9.70;5.30;;;;;;;15.70;65.52;101107.52;107567;1294;23133;-88
2022/10/06 06:46:58;;;;;;;6.10;4.90;;;;;;;15.94;65.66;101114.48;107590;1292;22079;-88
2022/10/06 06:49:39;;;;;;;8.30;4.40;;;;;;;16.13;65.20;101116.52;107581;1293;22015;-87
2022/10/06 06:52:24;;;;;;;;;;;;;;;;;;;;;
2022/10/06 06:55:20;;;;;;;;;;;;;;;;;;;;;
2022/10/06 06:58:19;;;;;;;9.20;4.80;;;;;;;16.58;64.61;101120.46;108255;1288;23880;-89
2022/10/06 07:00:47;;;;;;;10.30;5.20;;;;;;;16.85;64.16;101125.27;107832;1288;22054;-86
2022/10/06 07:03:23;;;;;;;6.70;4.60;;;;;;;17.18;64.14;101127.58;108001;1284;23620;-86
2022/10/06 07:06:30;;;;;;;7.00;5.30;;;;;;;17.57;63.44;101130.42;108353;1281;22410;-87
2022/10/06 07:09:06;;;;;;;7.90;5.00;;;;;;;17.96;62.88;101130.77;108492;1280;22140;-88
2022/10/06 07:11:41;;;;;;;8.00;5.10;;;;;;;18.39;61.86;101136.42;108662;1278;23666;-87
2022/10/06 07:14:22;;;;;;;10.20;5.50;;;;;;;18.77;60.93;101139.65;108986;1270;23036;-86
2022/10/06 07:25:53;;;;;;;6.00;4.30;;;;;;;20.04;56.79;101149.32;110526;1258;23152;-88
2022/10/06 07:28:53;;;;;;;;;;;;;;;;;;;;;
2022/10/06 07:31:42;;;;;;;7.30;4.80;;;;;;;20.31;53.97;101152.50;110436;1258;21985;-88
2022/10/06 07:34:27;;;;;;;9.80;4.70;;;;;;;20.15;53.26;101160.80;110539;1257;22007;-86
2022/10/06 07:37:27;;;;;;;;;;;;;;;;;;;;;
2022/10/06 07:40:25;;;;;;;6.90;4.30;;;;;;;19.62;53.68;101176.69;110279;1255;23045;-84
2022/10/06 07:43:16;;;;;;;6.20;5.40;;;;;;;19.40;54.46;101182.77;110331;1255;21962;-84
2022/10/06 07:46:04;;;;;;;6.50;4.70;;;;;;;19.19;54.79;101183.20;110265;1255;21985;-85
2022/10/06 07:49:21;;;;;;;9.10;4.70;;;;;;;19.07;55.60;101181.77;110285;1257;21985;-84
2022/10/06 07:52:07;;;;;;;6.30;4.50;;;;;;;19.02;55.92;101187.56;110300;1258;22910;-84
2022/10/06 07:54:49;;;;;;;7.80;4.70;;;;;;;19.03;56.48;101191.55;109888;1260;21997;-85
2022/10/06 07:58:09;;;;;;;;;;;;;;;;;;;;;
2022/10/06 08:01:32;;;;;;;;;;;;;;;;;;;;;
2022/10/06 08:04:11;;;;;;;15.60;9.90;;;;;;;18.92;56.52;101191.89;110030;1257;22900;-79
2022/10/06 08:06:53;;;;;;;14.00;9.60;;;;;;;18.85;56.92;101196.90;110093;1258;22998;-85
2022/10/06 08:09:26;;;;;;;10.80;7.70;;;;;;;18.88;57.21;101204.58;110065;1257;21971;-81
2022/10/06 08:11:58;;;;;;;14.30;5.50;;;;;;;18.97;57.20;101209.36;110031;1258;22059;-78
2022/10/06 08:15:26;;;;;;;8.10;6.20;;;;;;;18.99;57.16;101208.21;110163;1257;22024;-80
2022/10/06 08:18:55;;;;;;;10.00;5.40;;;;;;;19.03;57.04;101212.58;109397;1267;23683;-80
2022/10/06 08:22:28;;;;;;;4.80;3.60;;;;;;;19.01;57.23;101222.56;109517;1263;22898;-80
2022/10/06 08:25:57;;;;;;;6.10;3.80;;;;;;;18.96;57.23;101227.58;109112;1272;22008;-84
2022/10/06 08:29:49;;;;;;;;;;;;;;;;;;;;;
2022/10/06 08:32:28;;;;;;;5.80;3.00;;;;;;;18.85;57.59;101239.89;108315;1280;23757;-80
2022/10/06 08:34:59;;;;;;;;;;;;;;;18.80;57.69;101243.35;108281;1280;21997;-81
2022/10/06 08:37:34;;;;;;;16.30;5.00;;;;;;;18.65;57.89;101249.11;108682;1272;22001;-81
2022/10/06 08:40:10;;;;;;;5.80;3.80;;;;;;;18.63;58.02;101255.23;108800;1272;22009;-79
2022/10/06 08:43:02;;;;;;;5.90;4.00;;;;;;;18.61;58.38;101259.94;108814;1270;22017;-84
2022/10/06 08:46:03;;;;;;;5.50;3.50;;;;;;;18.59;58.67;101262.31;109157;1267;22402;-84
2022/10/06 08:49:22;;;;;;;7.10;3.40;;;;;;;18.59;59.15;101266.92;110019;1264;23713;-83
2022/10/06 08:52:54;;;;;;;10.30;4.00;;;;;;;18.67;59.59;101272.98;110542;1255;23599;-83
2022/10/06 08:55:47;;;;;;;9.70;7.00;;;;;;;18.87;59.53;101281.20;110614;1255;23587;-83
2022/10/06 08:59:08;;;;;;;;;;;;;;;;;;;;;
2022/10/06 09:02:43;;;;;;;;;;;;;;;;;;;;;
2022/10/06 09:05:33;;;;;;;8.90;4.00;;;;;;;18.89;58.32;101301.57;109880;1263;22372;-82
2022/10/06 09:09:43;;;;;;;7.50;6.10;;;;;;;18.86;58.39;101300.82;109784;1264;23182;-82
2022/10/06 09:12:52;;;;;;;10.40;6.70;;;;;;;18.85;58.45;101308.48;109408;1267;21997;-87
2022/10/06 09:16:18;;;;;;;15.10;4.60;;;;;;;18.87;58.57;101307.33;109520;1267;22447;-86
2022/10/06 09:20:23;;;;;;;5.00;4.10;;;;;;;18.95;58.60;101315.17;109065;1272;21985;-87
2022/10/06 09:24:54;;;;;;;;;;;;;;;;;;;;;
2022/10/06 09:28:16;;;;;;;8.80;5.30;;;;;;;19.55;58.02;101317.30;109284;1269;23700;-83
2022/10/06 09:32:01;;;;;;;;;;;;;;;;;;;;;
2022/10/06 09:34:58;;;;;;;4.90;3.70;;;;;;;19.30;56.53;101327.23;109386;1265;22437;-83
2022/10/06 09:38:46;;;;;;;6.90;4.20;;;;;;;19.10;56.75;101335.10;107054;1262;3940521;-89
2022/10/06 09:42:09;;;;;;;;;;;;;;;;;;;;;
2022/10/06 09:45:35;;;;;;;6.30;2.80;;;;;;;18.76;57.65;101340.54;109014;1271;22088;-83
2022/10/06 09:48:42;;;;;;;10.40;6.70;;;;;;;18.75;58.12;101343.95;108768;1270;22010;-80
2022/10/06 09:52:15;;;;;;;;;;;;;;;;;;;;;
2022/10/06 09:55:14;;;;;;;21.30;18.20;;;;;;;19.03;58.54;101349.45;108936;1271;23037;-82
2022/10/06 09:58:00;;;;;;;14.70;10.60;;;;;;;19.34;58.69;101347.96;108703;1268;23633;-81
2022/10/06 10:00:46;;;;;;;8.60;5.40;;;;;;;19.87;58.48;101349.77;109056;1267;23624;-79
2022/10/06 10:04:11;;;;;;;4.60;2.80;;;;;;;20.54;57.00;101353.95;108835;1270;22070;-78
2022/10/06 10:07:28;;;;;;;6.20;3.40;;;;;;;21.02;53.87;101359.54;108713;1270;23689;-80
2022/10/06 10:10:37;;;;;;;;;;;;;;;;;;;;;
2022/10/06 10:13:57;;;;;;;7.70;5.60;;;;;;;20.86;51.28;101369.92;109189;1268;21977;-82
2022/10/06 10:17:09;;;;;;;7.20;4.00;;;;;;;20.75;51.16;101376.85;108473;1279;21979;-83
2022/10/06 10:20:33;;;;;;;;;;;;;;;;;;;;;
2022/10/06 10:23:47;;;;;;;3.40;2.10;;;;;;;20.56;50.43;101388.66;108646;1279;22144;-82
2022/10/06 10:27:06;;;;;;;3.50;1.80;;;;;;;20.39;50.53;101395.53;108736;1273;21948;-82
2022/10/06 10:30:18;;;;;;;6.50;4.70;;;;;;;20.25;50.49;101401.73;108766;1273;23881;-80
2022/10/06 10:33:19;;;;;;;8.90;6.20;;;;;;;20.12;50.56;101404.99;108912;1273;21985;-79
2022/10/06 10:36:19;;;;;;;5.00;3.40;;;;;;;20.00;50.48;101412.94;110238;1260;23200;-80
2022/10/06 10:38:58;;;;;;;4.40;2.90;;;;;;;19.87;50.63;101418.70;109681;1260;23038;-80
2022/10/06 10:41:44;;;;;;;12.00;5.20;;;;;;;19.73;51.21;101416.65;109999;1259;21976;-80
2022/10/06 10:45:03;;;;;;;11.20;9.60;;;;;;;19.68;51.51;101414.83;110930;1251;21963;-80
2022/10/06 10:48:20;;;;;;;13.10;9.50;;;;;;;19.66;51.51;101411.96;111469;1250;21964;-81
2022/10/06 10:51:44;;;;;;;8.30;5.30;;;;;;;19.71;52.01;101413.78;110037;1264;22139;-80
2022/10/06 10:55:13;;;;;;;7.90;4.90;;;;;;;20.30;52.20;101414.15;109970;1264;22483;-80
2022/10/06 10:59:16;;;;;;;6.60;4.70;;;;;;;20.43;50.53;101419.30;109198;1270;21998;-79
2022/10/06 11:02:34;;;;;;;;;;;;;;;;;;;;;
2022/10/06 11:06:10;;;;;;;4.20;1.90;;;;;;;20.63;48.47;101429.57;108843;1276;22159;-80
2022/10/06 11:09:48;;;;;;;;;;;;;;;;;;;;;
2022/10/06 11:13:10;;;;;;;8.40;3.70;;;;;;;20.14;48.71;101437.91;108539;1278;22008;-80
2022/10/06 11:16:33;;;;;;;5.10;2.60;;;;;;;19.97;49.30;101445.80;108396;1280;23065;-79
2022/10/06 11:20:33;;;;;;;4.70;2.10;;;;;;;19.90;49.74;101444.46;108394;1278;22737;-81
2022/10/06 11:23:21;;;;;;;4.40;2.40;;;;;;;19.78;49.58;101451.20;107485;1289;22031;-81
2022/10/06 11:26:15;;;;;;;3.80;2.80;;;;;;;19.65;49.67;101452.46;107637;1289;22014;-80
2022/10/06 11:29:26;;;;;;;5.90;3.30;;;;;;;19.48;49.91;101452.19;108522;1279;22218;-81
2022/10/06 11:32:31;;;;;;;7.40;2.60;;;;;;;19.35;50.22;101450.66;108350;1285;23055;-79
2022/10/06 11:35:13;;;;;;;7.60;3.20;;;;;;;19.22;50.49;101456.48;108195;1285;22031;-84
2022/10/06 11:38:18;;;;;;;10.50;7.40;;;;;;;19.21;51.15;101455.67;108483;1282;22079;-82
2022/10/06 11:41:31;;;;;;;8.40;3.70;;;;;;;19.26;51.47;101466.86;108300;1285;23087;-82
2022/10/06 11:44:27;;;;;;;5.70;3.90;;;;;;;19.26;51.49;101468.63;108239;1286;22014;-79
2022/10/06 11:47:32;;;;;;;11.30;4.10;;;;;;;19.30;51.00;101472.09;108570;1285;23688;-83
2022/10/06 11:50:44;;;;;;;7.40;5.10;;;;;;;19.34;50.59;101477.18;108704;1277;21994;-81
2022/10/06 11:53:35;;;;;;;6.20;3.00;;;;;;;19.37;50.41;101483.68;108842;1270;23683;-81
2022/10/06 11:56:17;;;;;;;3.10;2.40;;;;;;;19.42;50.25;101484.81;108902;1273;21984;-80
2022/10/06 11:59:24;;;;;;;8.50;1.90;;;;;;;19.44;49.72;101487.73;109552;1260;22109;-85
2022/10/06 12:02:31;;;;;;;6.20;1.90;;;;;;;19.37;49.36;101492.56;110048;1260;21965;-80
2022/10/06 12:05:09;;;;;;;8.20;5.50;;;;;;;19.32;49.32;101490.19;110423;1261;21980;-84
2022/10/06 12:08:01;;;;;;;5.50;3.80;;;;;;;19.33;49.47;101485.52;110192;1262;21968;-81
2022/10/06 12:10:31;;;;;;;8.90;3.30;;;;;;;19.43;49.54;101492.17;110329;1260;22270;-82
2022/10/06 12:13:40;;;;;;;3.70;2.10;;;;;;;19.47;49.39;101491.44;110884;1260;22022;-85
2022/10/06 12:16:43;;;;;;;3.60;1.90;;;;;;;19.43;49.26;101491.83;110724;1258;24314;-82
2022/10/06 12:20:37;;;;;;;4.90;2.90;;;;;;;19.43;49.52;101499.26;110529;1257;21975;-79
2022/10/06 12:24:01;;;;;;;6.40;2.70;;;;;;;19.44;49.56;101495.16;110092;1261;24515;-81
2022/10/06 12:26:48;;;;;;;4.90;3.10;;;;;;;19.43;49.58;101493.42;108959;1273;22317;-80
2022/10/06 12:30:25;;;;;;;3.80;2.10;;;;;;;19.44;49.58;101498.13;109037;1270;22831;-81
2022/10/06 12:33:02;;;;;;;4.00;1.30;;;;;;;19.41;49.43;101501.11;109207;1277;21981;-83
2022/10/06 12:35:41;;;;;;;4.50;1.80;;;;;;;19.40;49.01;101506.33;109025;1277;22129;-83
2022/10/06 12:38:30;;;;;;;5.90;2.20;;;;;;;19.33;48.68;101509.87;108701;1279;23578;-84
2022/10/06 12:41:13;;;;;;;2.50;1.40;;;;;;;19.23;48.50;101510.60;108714;1276;22011;-83
2022/10/06 12:43:54;;;;;;;7.00;3.10;;;;;;;19.22;48.43;101510.88;108765;1279;22005;-81
2022/10/06 12:46:42;;;;;;;8.10;4.80;;;;;;;19.18;48.40;101512.65;108777;1279;22318;-82
2022/10/06 12:50:05;;;;;;;3.90;3.40;;;;;;;19.16;48.38;101518.28;108946;1276;22094;-84
2022/10/06 12:52:55;;;;;;;5.60;3.00;;;;;;;19.16;48.36;101521.75;108937;1276;22067;-83
2022/10/06 12:56:18;;;;;;;;;;;;;;;;;;;;;
2022/10/06 12:59:44;;;;;;;;;;;;;;;;;;;;;
2022/10/06 13:02:45;;;;;;;5.90;2.40;;;;;;;19.05;48.53;101524.30;109270;1261;23416;-85
2022/10/06 13:05:25;;;;;;;7.20;4.20;;;;;;;19.03;48.67;101528.30;110351;1259;22054;-88
2022/10/06 13:09:06;;;;;;;6.60;4.10;;;;;;;19.04;48.14;101521.38;110593;1257;21974;-83
2022/10/06 13:11:53;;;;;;;4.70;3.20;;;;;;;19.02;47.53;101525.52;110502;1260;21982;-85
2022/10/06 13:15:40;;;;;;;4.30;3.10;;;;;;;18.90;47.34;101522.83;109795;1263;21973;-84
2022/10/06 13:18:41;;;;;;;4.80;2.70;;;;;;;18.83;47.46;101522.84;109405;1273;22214;-83
2022/10/06 13:21:27;;;;;;;5.00;1.90;;;;;;;18.84;47.57;101524.93;109045;1276;21960;-83
2022/10/06 13:24:35;;;;;;;3.00;1.70;;;;;;;18.82;47.47;101528.70;108523;1282;23689;-81
2022/10/06 13:27:07;;;;;;;4.80;1.70;;;;;;;18.78;47.47;101528.73;108493;1278;22339;-82
2022/10/06 13:29:36;;;;;;;3.50;1.50;;;;;;;18.75;47.16;101527.66;108657;1274;23103;-83
2022/10/06 13:32:17;;;;;;;4.60;1.90;;;;;;;18.73;46.95;101533.60;108895;1270;21996;-81
2022/10/06 13:35:17;;;;;;;7.70;4.30;;;;;;;18.66;46.15;101540.27;109291;1267;21983;-84
2022/10/06 13:38:01;;;;;;;12.10;4.20;;;;;;;18.62;45.27;101541.73;109190;1270;22142;-83
2022/10/06 13:41:10;;;;;;;3.60;2.30;;;;;;;18.59;44.74;101537.13;109763;1265;23061;-84
2022/10/06 13:44:00;;;;;;;10.70;7.50;;;;;;;18.58;44.24;101540.55;110557;1257;23594;-83
2022/10/06 13:47:38;;;;;;;;;;;;;;;;;;;;;
2022/10/06 13:50:18;;;;;;;3.50;2.10;;;;;;;18.54;44.00;101544.98;110064;1261;23068;-84
2022/10/06 13:53:33;;;;;;;;;;;;;;;;;;;;;
2022/10/06 13:56:49;;;;;;;;;;;;;;;;;;;;;
2022/10/06 13:59:48;;;;;;;;;;;;;;;;;;;;;